KANK

Harriet Alexander Field Airport

Salida, Colorado, USA
METAR KANK 181615Z AUTO 34009G17KT 10SM CLR 00/M14 A3019 RMK AO1 T00001145
Observed Flight Rules
Dec-18 @ 16:15 UTC (22 minutes ago) Visual Flight Rules
Wind Visibility Clouds
340° at 9 knots
 Gusting to 17 knots
10 miles
  • Clear skies
Temperatures Readings
Current 0°C / 32°F
Dewpoint -15°C / 5°F
Humidity 32%
Altimeter 30.19" Hg
Pressure 1022 hPa
Elevation 2293
METAR KANK 181615Z AUTO 34009G17KT 10SM CLR 00/M14 A3019 RMK AO1 T00001145
Observed Flight Rules
Dec-18 @ 16:15 UTC
(22 minutes ago)
VFR
Wind Visibility
340° at 9 knots
 Gusting to 17 knots
10 miles
Clouds
  • Clear skies
Temperature Dewpoint
0°C / 32°F -15°C / 5°F
Humidity Altimeter Pressure
32% 30.19" Hg 1022 hPa